createdAt,value
2023-02-06T00:01:18.766Z,100698.13
2023-02-06T00:03:45.664Z,100707.78
2023-02-06T00:06:12.533Z,100717.94
2023-02-06T00:08:39.808Z,100706.19
2023-02-06T00:11:08.806Z,100714.41
2023-02-06T00:13:36.618Z,100710.69
2023-02-06T00:16:04.786Z,100725.81
2023-02-06T00:18:31.992Z,100723.06
2023-02-06T00:20:58.812Z,100724.91
2023-02-06T00:23:25.651Z,100722.00
2023-02-06T00:25:52.503Z,100724.84
2023-02-06T00:28:19.356Z,100722.78
2023-02-06T00:30:47.625Z,100726.97
2023-02-06T00:33:14.859Z,100723.47
2023-02-06T00:35:44.412Z,100732.16
2023-02-06T00:38:11.866Z,100734.56
2023-02-06T00:40:38.955Z,100733.38
2023-02-06T00:43:05.959Z,100736.56
2023-02-06T00:45:33.869Z,100730.31
2023-02-06T00:48:01.286Z,100733.69
2023-02-06T00:50:28.314Z,100740.69
2023-02-06T00:52:55.240Z,100737.81
2023-02-06T00:55:22.291Z,100735.78
2023-02-06T00:57:49.215Z,100734.38
2023-02-06T01:00:16.346Z,100740.53
2023-02-06T01:02:46.028Z,100739.88
2023-02-06T01:05:12.963Z,100736.16
2023-02-06T01:07:40.622Z,100747.41
2023-02-06T01:10:26.350Z,100752.56
2023-02-06T01:12:53.642Z,100754.19
2023-02-06T01:15:20.691Z,100751.03
2023-02-06T01:17:47.594Z,100768.03
2023-02-06T01:20:14.857Z,100761.28
2023-02-06T01:22:42.135Z,100757.28
2023-02-06T01:25:09.547Z,100760.03
2023-02-06T01:27:38.065Z,100752.91
2023-02-06T01:30:07.312Z,100761.09
2023-02-06T01:32:41.760Z,100752.31
2023-02-06T01:35:10.645Z,100758.94
2023-02-06T01:37:38.252Z,100759.00
2023-02-06T01:40:07.754Z,100753.59
2023-02-06T01:42:36.511Z,100749.59
2023-02-06T01:45:21.573Z,100741.88
2023-02-06T01:47:52.357Z,100740.97
2023-02-06T01:50:19.343Z,100750.31
2023-02-06T01:52:47.444Z,100746.59
2023-02-06T01:55:14.606Z,100743.72
2023-02-06T01:57:42.089Z,100747.75
2023-02-06T02:02:59.460Z,100744.63
2023-02-06T02:05:26.419Z,100743.75
2023-02-06T02:08:01.507Z,100751.66
2023-02-06T02:10:32.078Z,100751.88
2023-02-06T02:12:59.220Z,100745.34
2023-02-06T02:15:39.565Z,100754.53
2023-02-06T02:18:26.686Z,100757.28
2023-02-06T02:21:13.898Z,100763.16
2023-02-06T02:24:24.406Z,100761.09
2023-02-06T02:27:09.733Z,100768.34
2023-02-06T02:30:07.654Z,100767.88
2023-02-06T02:33:05.582Z,100773.66
2023-02-06T02:35:51.199Z,100771.38
2023-02-06T02:38:27.246Z,100768.28
2023-02-06T02:41:20.788Z,100766.69
2023-02-06T02:44:09.604Z,100765.28
2023-02-06T02:46:41.368Z,100776.09
2023-02-06T02:49:13.532Z,100772.00
2023-02-06T02:51:41.488Z,100783.47
2023-02-06T02:54:09.216Z,100785.13
2023-02-06T02:56:36.404Z,100788.22
2023-02-06T02:59:32.672Z,100784.81
2023-02-06T03:02:25.637Z,100787.41
2023-02-06T03:05:00.551Z,100781.22
2023-02-06T03:07:53.906Z,100787.78
2023-02-06T03:10:30.373Z,100792.41
2023-02-06T03:13:26.995Z,100791.63
2023-02-06T03:16:04.236Z,100798.53
2023-02-06T03:18:43.381Z,100800.91
2023-02-06T03:21:15.515Z,100806.59
2023-02-06T03:23:45.519Z,100810.16
2023-02-06T03:26:16.576Z,100809.00
2023-02-06T03:28:49.314Z,100805.72
2023-02-06T03:31:25.458Z,100797.53
2023-02-06T03:33:59.864Z,100797.47
2023-02-06T03:36:26.763Z,100800.66
2023-02-06T03:38:54.105Z,100807.34
2023-02-06T03:41:26.121Z,100800.06
2023-02-06T03:43:54.304Z,100803.41
2023-02-06T03:46:24.403Z,100808.66
2023-02-06T03:48:57.341Z,100801.41
2023-02-06T03:51:39.467Z,100811.88
2023-02-06T03:54:08.018Z,100813.03
2023-02-06T03:56:45.330Z,100824.53
2023-02-06T03:59:12.242Z,100826.50
2023-02-06T04:01:50.535Z,100820.75
2023-02-06T04:04:25.070Z,100828.25
2023-02-06T04:06:51.918Z,100830.34
2023-02-06T04:09:18.735Z,100825.41
2023-02-06T04:11:45.605Z,100812.31
2023-02-06T04:14:12.442Z,100823.19
2023-02-06T04:16:39.299Z,100822.53
2023-02-06T04:19:06.264Z,100840.06
2023-02-06T04:21:36.239Z,100837.41
2023-02-06T04:24:03.101Z,100835.03
2023-02-06T04:26:29.990Z,100841.56
2023-02-06T04:28:56.919Z,100834.31
2023-02-06T04:31:23.800Z,100842.06
2023-02-06T04:33:51.400Z,100852.53
2023-02-06T04:36:18.293Z,100846.34
2023-02-06T04:38:45.117Z,100840.47
2023-02-06T04:41:12.115Z,100848.47
2023-02-06T04:43:39.031Z,100849.81
2023-02-06T04:46:06.669Z,100845.81
2023-02-06T04:48:33.811Z,100857.19
2023-02-06T04:51:00.619Z,100853.88
2023-02-06T04:53:27.441Z,100851.13
2023-02-06T04:55:56.589Z,100852.03
2023-02-06T04:58:23.529Z,100853.56
2023-02-06T05:00:50.882Z,100861.13
2023-02-06T05:03:17.769Z,100858.47
2023-02-06T05:05:45.114Z,100864.59
2023-02-06T05:08:12.189Z,100856.69
2023-02-06T05:10:39.171Z,100861.00
2023-02-06T05:13:06.032Z,100853.34
2023-02-06T05:15:33.334Z,100857.69
2023-02-06T05:18:00.515Z,100852.03
2023-02-06T05:20:29.131Z,100862.59
2023-02-06T05:22:56.005Z,100856.69
2023-02-06T05:25:23.404Z,100863.06
2023-02-06T05:27:51.537Z,100867.59
2023-02-06T05:30:19.295Z,100873.16
2023-02-06T05:32:46.266Z,100881.66
2023-02-06T05:35:13.197Z,100873.28
2023-02-06T05:37:40.280Z,100870.97
2023-02-06T05:40:08.542Z,100873.59
2023-02-06T05:42:36.085Z,100876.81
2023-02-06T05:45:04.352Z,100878.00
2023-02-06T05:47:31.659Z,100868.63
2023-02-06T05:49:58.774Z,100867.47
2023-02-06T05:52:25.684Z,100856.28
2023-02-06T05:54:52.857Z,100880.81
2023-02-06T05:57:19.676Z,100873.38
2023-02-06T05:59:46.953Z,100865.53
2023-02-06T06:02:14.000Z,100870.38
2023-02-06T06:04:40.941Z,100877.84
2023-02-06T06:07:07.993Z,100884.59
2023-02-06T06:09:35.816Z,100874.78
2023-02-06T06:12:03.425Z,100868.03
2023-02-06T06:14:35.307Z,100874.78
2023-02-06T06:17:02.569Z,100885.94
2023-02-06T06:19:29.510Z,100878.44
2023-02-06T06:21:58.268Z,100901.06
2023-02-06T06:24:26.453Z,100890.03
2023-02-06T06:26:53.471Z,100892.13
2023-02-06T06:29:20.506Z,100906.44
2023-02-06T06:31:49.043Z,100908.25
2023-02-06T06:34:34.957Z,100914.47
2023-02-06T06:37:02.003Z,100906.56
2023-02-06T06:39:28.915Z,100901.94
2023-02-06T06:41:55.956Z,100906.72
2023-02-06T06:44:24.799Z,100910.50
2023-02-06T06:46:52.128Z,100914.53
2023-02-06T06:49:19.186Z,100911.09
2023-02-06T06:51:46.286Z,100913.22
2023-02-06T06:54:13.255Z,100922.09
2023-02-06T06:56:41.565Z,100928.47
2023-02-06T06:59:09.148Z,100917.28
2023-02-06T07:01:36.294Z,100928.44
2023-02-06T07:04:03.260Z,100938.16
2023-02-06T07:06:30.465Z,100940.06
2023-02-06T07:08:57.934Z,100930.81
2023-02-06T07:11:26.387Z,100931.44
2023-02-06T07:13:54.204Z,100937.00
2023-02-06T07:16:22.190Z,100931.09
2023-02-06T07:18:49.315Z,100944.13
2023-02-06T07:21:17.254Z,100935.91
2023-02-06T07:23:45.235Z,100947.25
2023-02-06T07:26:13.021Z,100950.81
2023-02-06T07:28:40.826Z,100949.16
2023-02-06T07:31:11.087Z,100951.50
2023-02-06T07:33:38.026Z,100953.69
2023-02-06T07:36:05.674Z,100962.44
2023-02-06T07:38:32.793Z,100965.78
2023-02-06T07:41:05.026Z,100960.44
2023-02-06T07:43:32.789Z,100959.88
2023-02-06T07:46:05.161Z,100965.28
2023-02-06T07:48:32.341Z,100966.28
2023-02-06T07:51:06.837Z,100974.56
2023-02-06T07:53:34.797Z,100971.16
2023-02-06T07:56:02.579Z,100969.53
2023-02-06T07:58:30.186Z,100973.06
2023-02-06T08:01:03.023Z,100974.69
2023-02-06T08:03:49.771Z,100965.56
2023-02-06T08:06:17.029Z,100971.44
2023-02-06T08:08:45.660Z,100970.75
2023-02-06T08:11:15.502Z,100970.25
2023-02-06T08:13:43.418Z,100967.06
2023-02-06T08:16:19.650Z,100978.72
2023-02-06T08:18:46.656Z,100978.47
2023-02-06T08:21:14.867Z,100979.53
2023-02-06T08:23:44.163Z,100971.84
2023-02-06T08:26:18.078Z,100976.00
2023-02-06T08:28:47.789Z,100975.34
2023-02-06T08:34:05.776Z,100976.44
2023-02-06T08:36:34.023Z,100965.84
2023-02-06T08:39:09.492Z,100964.97
2023-02-06T08:41:40.543Z,100963.97
2023-02-06T08:44:12.433Z,100961.66
2023-02-06T08:46:40.026Z,100962.84
2023-02-06T08:49:27.447Z,100956.09
2023-02-06T08:51:56.702Z,100964.47
2023-02-06T08:54:24.666Z,100947.47
2023-02-06T08:56:53.025Z,100960.63
2023-02-06T08:59:20.968Z,100955.88
2023-02-06T09:01:50.429Z,100950.34
2023-02-06T09:04:18.039Z,100950.09
2023-02-06T09:06:49.612Z,100959.84
2023-02-06T09:09:17.025Z,100949.66
2023-02-06T09:11:44.175Z,100947.72
2023-02-06T09:14:15.328Z,100947.09
2023-02-06T09:16:43.558Z,100945.59
2023-02-06T09:19:11.692Z,100933.03
2023-02-06T09:21:39.139Z,100932.56
2023-02-06T09:24:13.198Z,100935.31
2023-02-06T09:26:58.179Z,100934.91
2023-02-06T09:29:29.377Z,100928.44
2023-02-06T09:31:57.721Z,100925.63
2023-02-06T09:34:26.333Z,100926.53
2023-02-06T09:36:58.066Z,100936.16
2023-02-06T09:39:25.956Z,100934.41
2023-02-06T09:42:06.265Z,100936.81
2023-02-06T09:44:41.942Z,100932.03
2023-02-06T09:47:27.939Z,100936.31
2023-02-06T09:50:03.907Z,100936.31
2023-02-06T09:52:41.614Z,100933.91
2023-02-06T09:55:37.272Z,100937.47
2023-02-06T09:58:32.047Z,100937.34
2023-02-06T10:01:08.560Z,100936.69
2023-02-06T10:03:42.952Z,100934.63
2023-02-06T10:06:21.615Z,100916.69
2023-02-06T10:09:19.858Z,100935.31
2023-02-06T10:11:54.759Z,100925.22
2023-02-06T10:14:33.332Z,100927.78
2023-02-06T10:17:12.731Z,100926.41
2023-02-06T10:20:14.084Z,100921.88
2023-02-06T10:22:50.519Z,100914.09
2023-02-06T10:25:42.093Z,100906.09
2023-02-06T10:28:27.412Z,100909.09
2023-02-06T10:31:30.911Z,100902.84
2023-02-06T10:34:29.713Z,100911.88
2023-02-06T10:37:12.366Z,100916.19
2023-02-06T10:40:03.137Z,100912.16
2023-02-06T10:42:39.353Z,100914.34
2023-02-06T10:45:43.510Z,100909.94
2023-02-06T10:48:31.781Z,100906.94
2023-02-06T10:51:26.725Z,100907.59
2023-02-06T10:53:58.462Z,100905.25
2023-02-06T10:56:32.310Z,100903.25
2023-02-06T10:59:24.311Z,100900.00
2023-02-06T11:02:15.081Z,100906.94
2023-02-06T11:04:53.290Z,100903.34
2023-02-06T11:07:47.350Z,100904.50
2023-02-06T11:10:17.917Z,100903.41
2023-02-06T11:12:51.813Z,100889.38
2023-02-06T11:15:23.828Z,100890.63
2023-02-06T11:17:53.120Z,100904.25
2023-02-06T11:20:30.825Z,100901.13
2023-02-06T11:23:13.484Z,100902.75
2023-02-06T11:25:45.521Z,100908.44
2023-02-06T11:28:17.547Z,100898.44
2023-02-06T11:30:57.635Z,100905.44
2023-02-06T11:33:57.119Z,100906.88
2023-02-06T11:36:34.650Z,100897.19
2023-02-06T11:39:12.009Z,100900.88
2023-02-06T11:41:39.008Z,100908.81
2023-02-06T11:44:06.912Z,100912.13
2023-02-06T11:46:36.581Z,100906.56
2023-02-06T11:49:27.246Z,100902.53
2023-02-06T11:51:57.467Z,100898.59
2023-02-06T11:54:48.555Z,100897.91
2023-02-06T11:57:26.802Z,100899.16
2023-02-06T11:59:58.522Z,100900.69
2023-02-06T12:02:35.461Z,100903.09
2023-02-06T12:05:14.881Z,100906.31
2023-02-06T12:08:16.818Z,100901.69
2023-02-06T12:10:58.616Z,100901.06
2023-02-06T12:13:33.945Z,100898.13
2023-02-06T12:16:06.421Z,100894.41
2023-02-06T12:18:44.349Z,100898.69
2023-02-06T12:21:28.690Z,100896.88
2023-02-06T12:24:06.193Z,100894.81
2023-02-06T12:26:38.609Z,100898.28
2023-02-06T12:29:06.250Z,100894.88
2023-02-06T12:32:10.363Z,100896.75
2023-02-06T12:35:16.260Z,100896.38
2023-02-06T12:37:49.284Z,100892.50
2023-02-06T12:40:40.488Z,100892.09
2023-02-06T12:43:14.529Z,100889.78
2023-02-06T12:46:04.614Z,100887.16
2023-02-06T12:48:47.599Z,100884.19
2023-02-06T12:51:25.171Z,100888.31
2023-02-06T12:54:17.611Z,100874.94
2023-02-06T12:56:49.540Z,100888.94
2023-02-06T12:59:57.079Z,100890.63
2023-02-06T13:02:47.604Z,100902.28
2023-02-06T13:05:36.052Z,100883.22
2023-02-06T13:08:39.596Z,100903.16
2023-02-06T13:11:14.965Z,100899.56
2023-02-06T13:13:42.575Z,100899.03
2023-02-06T13:16:11.066Z,100901.47
2023-02-06T13:18:50.921Z,100904.78
2023-02-06T13:21:19.472Z,100907.84
2023-02-06T13:24:01.822Z,100908.09
2023-02-06T13:26:51.960Z,100915.50
2023-02-06T13:29:23.142Z,100916.78
2023-02-06T13:31:50.159Z,100915.09
2023-02-06T13:34:18.335Z,100915.00
2023-02-06T13:36:50.359Z,100912.34
2023-02-06T13:39:25.586Z,100904.16
2023-02-06T13:41:53.027Z,100900.31
2023-02-06T13:44:33.773Z,100906.94
2023-02-06T13:47:00.813Z,100906.66
2023-02-06T13:50:07.551Z,100909.88
2023-02-06T13:52:48.394Z,100902.75
2023-02-06T13:55:37.743Z,100901.31
2023-02-06T13:58:31.003Z,100907.56
2023-02-06T14:01:00.093Z,100909.00
2023-02-06T14:03:36.272Z,100905.16
2023-02-06T14:06:40.387Z,100903.09
2023-02-06T14:09:44.083Z,100908.19
2023-02-06T14:12:35.998Z,100899.16
2023-02-06T14:15:26.894Z,100900.44
2023-02-06T14:18:44.235Z,100910.03
2023-02-06T14:21:48.584Z,100897.75
2023-02-06T14:24:54.130Z,100903.25
2023-02-06T14:27:52.930Z,100895.44
2023-02-06T14:30:44.925Z,100886.53
2023-02-06T14:33:30.688Z,100887.31
2023-02-06T14:36:07.116Z,100888.34
2023-02-06T14:38:52.145Z,100892.13
2023-02-06T14:41:19.730Z,100891.25
2023-02-06T14:43:49.442Z,100879.66
2023-02-06T14:46:20.105Z,100900.50
2023-02-06T14:48:56.003Z,100899.44
2023-02-06T14:51:39.913Z,100897.41
2023-02-06T14:54:29.868Z,100899.97
2023-02-06T14:57:03.504Z,100903.78
2023-02-06T14:59:32.346Z,100904.16
2023-02-06T15:02:14.056Z,100890.25
2023-02-06T15:04:48.116Z,100902.50
2023-02-06T15:07:34.697Z,100910.03
2023-02-06T15:10:29.821Z,100905.59
2023-02-06T15:12:58.077Z,100899.81
2023-02-06T15:15:32.921Z,100889.38
2023-02-06T15:18:17.972Z,100900.06
2023-02-06T15:20:52.126Z,100897.91
2023-02-06T15:23:42.817Z,100896.13
2023-02-06T15:26:54.573Z,100909.78
2023-02-06T15:29:27.960Z,100896.88
2023-02-06T15:32:01.178Z,100898.81
2023-02-06T15:34:28.404Z,100908.16
2023-02-06T15:36:55.589Z,100915.03
2023-02-06T15:39:22.956Z,100907.09
2023-02-06T15:41:52.140Z,100913.34
2023-02-06T15:44:22.255Z,100924.44
2023-02-06T15:46:51.279Z,100926.88
2023-02-06T15:49:32.264Z,100925.44
2023-02-06T15:52:02.410Z,100916.81
2023-02-06T15:54:32.370Z,100927.84
2023-02-06T15:57:36.670Z,100934.53
2023-02-06T16:00:09.837Z,100929.66
2023-02-06T16:02:47.249Z,100922.00
2023-02-06T16:05:32.901Z,100933.72
2023-02-06T16:08:02.346Z,100934.00
2023-02-06T16:10:36.424Z,100942.38
2023-02-06T16:13:11.311Z,100941.03
2023-02-06T16:15:40.316Z,100952.88
2023-02-06T16:18:19.948Z,100950.97
2023-02-06T16:20:47.184Z,100953.16
2023-02-06T16:23:25.909Z,100960.03
2023-02-06T16:26:13.427Z,100962.94
2023-02-06T16:29:06.715Z,100955.31
2023-02-06T16:31:40.259Z,100967.31
2023-02-06T16:34:34.752Z,100959.03
2023-02-06T16:37:03.959Z,100967.84
2023-02-06T16:39:30.742Z,100973.28
2023-02-06T16:41:57.606Z,100976.22
2023-02-06T16:44:36.099Z,100974.34
2023-02-06T16:47:14.157Z,100977.78
2023-02-06T16:49:41.377Z,100988.38
2023-02-06T16:52:08.538Z,100981.47
2023-02-06T16:54:36.017Z,100992.44
2023-02-06T16:57:20.364Z,100987.97
2023-02-06T16:59:47.473Z,100986.94
2023-02-06T17:02:15.257Z,100991.94
2023-02-06T17:04:42.303Z,100994.63
2023-02-06T17:07:18.965Z,100997.94
2023-02-06T17:09:46.707Z,101001.75
2023-02-06T17:12:21.500Z,101008.00
2023-02-06T17:14:48.951Z,101000.31
2023-02-06T17:17:20.940Z,101008.88
2023-02-06T17:19:48.827Z,101008.63
2023-02-06T17:22:16.570Z,101017.28
2023-02-06T17:24:51.580Z,101012.34
2023-02-06T17:27:22.021Z,101010.06
2023-02-06T17:29:53.183Z,101006.59
2023-02-06T17:32:25.099Z,101014.00
2023-02-06T17:34:55.677Z,101018.97
2023-02-06T17:37:22.622Z,101013.88
2023-02-06T17:39:53.060Z,101018.06
2023-02-06T17:42:22.135Z,101018.34
2023-02-06T17:44:49.370Z,101017.44
2023-02-06T17:47:19.384Z,101026.25
2023-02-06T17:49:47.426Z,101013.63
2023-02-06T17:52:14.769Z,101010.06
2023-02-06T17:54:42.165Z,101018.72
2023-02-06T17:57:09.548Z,101010.94
2023-02-06T17:59:36.498Z,101011.06
2023-02-06T18:02:03.731Z,100997.78
2023-02-06T18:04:31.588Z,101007.50
2023-02-06T18:06:58.695Z,101001.88
2023-02-06T18:09:26.133Z,101009.91
2023-02-06T18:11:53.151Z,101010.41
2023-02-06T18:14:21.491Z,101008.28
2023-02-06T18:16:48.796Z,100999.84
2023-02-06T18:19:19.120Z,101004.66
2023-02-06T18:21:46.166Z,101000.84
2023-02-06T18:24:13.983Z,101003.28
2023-02-06T18:26:42.461Z,101004.81
2023-02-06T18:29:09.570Z,101005.44
2023-02-06T18:31:36.959Z,101006.09
2023-02-06T18:34:08.202Z,101002.28
2023-02-06T18:36:37.743Z,101007.63
2023-02-06T18:39:06.623Z,101006.34
2023-02-06T18:41:52.351Z,101007.09
2023-02-06T18:44:20.833Z,101007.59
2023-02-06T18:46:47.765Z,101009.25
2023-02-06T18:49:14.681Z,101014.91
2023-02-06T18:51:41.891Z,101018.78
2023-02-06T18:54:10.107Z,101010.44
2023-02-06T18:56:38.631Z,101012.50
2023-02-06T18:59:06.188Z,101007.31
2023-02-06T19:01:33.579Z,101012.16
2023-02-06T19:04:01.013Z,101012.16
2023-02-06T19:06:35.524Z,101017.47
2023-02-06T19:09:07.349Z,101009.44
2023-02-06T19:11:36.078Z,101016.34
2023-02-06T19:14:04.572Z,101014.03
2023-02-06T19:16:32.748Z,101019.72
2023-02-06T19:19:01.769Z,101005.44
2023-02-06T19:21:28.595Z,100999.16
2023-02-06T19:23:58.071Z,101020.84
2023-02-06T19:26:25.514Z,101011.66
2023-02-06T19:28:53.015Z,101017.75
2023-02-06T19:31:26.705Z,101018.22
2023-02-06T19:34:00.427Z,101022.81
2023-02-06T19:36:29.063Z,101015.19
2023-02-06T19:38:58.763Z,101020.16
2023-02-06T19:41:27.852Z,101016.13
2023-02-06T19:43:56.282Z,101013.19
2023-02-06T19:46:26.458Z,101016.00
2023-02-06T19:48:54.757Z,101013.06
2023-02-06T19:51:30.132Z,101018.94
2023-02-06T19:53:58.919Z,101023.41
2023-02-06T19:56:39.379Z,101010.50
2023-02-06T19:59:20.905Z,101023.66
2023-02-06T20:01:51.389Z,101026.22
2023-02-06T20:04:20.234Z,101021.50
2023-02-06T20:06:47.275Z,101015.03
2023-02-06T20:09:15.833Z,101015.13
2023-02-06T20:11:45.262Z,101023.59
2023-02-06T20:14:12.683Z,101031.09
2023-02-06T20:16:45.349Z,101017.69
2023-02-06T20:19:16.732Z,101025.09
2023-02-06T20:21:47.144Z,101027.41
2023-02-06T20:24:18.641Z,101029.44
2023-02-06T20:26:46.095Z,101025.63
2023-02-06T20:29:25.188Z,101035.28
2023-02-06T20:31:52.877Z,101033.63
2023-02-06T20:34:20.385Z,101036.41
2023-02-06T20:36:48.680Z,101032.19
2023-02-06T20:39:16.345Z,101036.00
2023-02-06T20:41:45.599Z,101032.81
2023-02-06T20:44:14.464Z,101043.16
2023-02-06T20:46:42.620Z,101044.28
2023-02-06T20:49:19.954Z,101048.50
2023-02-06T20:51:50.258Z,101046.84
2023-02-06T20:54:18.985Z,101053.00
2023-02-06T20:56:46.758Z,101052.69
2023-02-06T20:59:16.000Z,101045.31
2023-02-06T21:01:43.227Z,101054.38
2023-02-06T21:04:12.575Z,101050.50
2023-02-06T21:06:40.110Z,101053.81
2023-02-06T21:09:25.907Z,101059.25
2023-02-06T21:11:52.825Z,101057.72
2023-02-06T21:14:39.132Z,101066.72
2023-02-06T21:17:05.948Z,101063.53
2023-02-06T21:19:32.853Z,101067.09
2023-02-06T21:22:00.890Z,101065.41
2023-02-06T21:24:27.817Z,101063.44
2023-02-06T21:26:54.901Z,101056.16
2023-02-06T21:29:23.612Z,101062.69
2023-02-06T21:31:55.749Z,101058.44
2023-02-06T21:34:27.796Z,101065.66
2023-02-06T21:36:54.814Z,101063.41
2023-02-06T21:39:29.076Z,101060.72
2023-02-06T21:41:56.511Z,101059.88
2023-02-06T21:44:24.716Z,101056.47
2023-02-06T21:46:52.893Z,101061.13
2023-02-06T21:49:21.261Z,101064.06
2023-02-06T21:51:48.266Z,101072.81
2023-02-06T21:54:15.120Z,101052.75
2023-02-06T21:56:42.634Z,101070.84
2023-02-06T21:59:13.302Z,101075.44
2023-02-06T22:01:41.411Z,101078.66
2023-02-06T22:04:10.053Z,101084.69
2023-02-06T22:06:37.678Z,101077.25
2023-02-06T22:09:07.863Z,101092.81
2023-02-06T22:11:39.825Z,101083.53
2023-02-06T22:14:11.230Z,101084.69
2023-02-06T22:16:38.719Z,101084.13
2023-02-06T22:19:09.188Z,101085.03
2023-02-06T22:21:37.389Z,101077.94
2023-02-06T22:24:06.739Z,101095.53
2023-02-06T22:26:37.241Z,101086.59
2023-02-06T22:29:05.938Z,101088.44
2023-02-06T22:31:34.398Z,101099.88
2023-02-06T22:34:02.123Z,101094.94
2023-02-06T22:36:32.300Z,101092.59
2023-02-06T22:39:01.864Z,101105.16
2023-02-06T22:41:30.014Z,101098.59
2023-02-06T22:43:56.958Z,101104.00
2023-02-06T22:46:36.959Z,101105.28
2023-02-06T22:49:05.858Z,101113.53
2023-02-06T22:51:32.918Z,101108.78
2023-02-06T22:54:01.568Z,101112.28
2023-02-06T22:56:37.354Z,101117.44
2023-02-06T22:59:07.406Z,101117.78
2023-02-06T23:01:40.567Z,101117.22
2023-02-06T23:04:11.460Z,101114.38
2023-02-06T23:06:38.604Z,101111.28
2023-02-06T23:09:08.307Z,101114.00
2023-02-06T23:11:35.859Z,101106.41
2023-02-06T23:14:05.228Z,101109.09
2023-02-06T23:16:34.367Z,101103.13
2023-02-06T23:19:04.705Z,101089.66
2023-02-06T23:21:37.454Z,101099.19
2023-02-06T23:24:06.424Z,101116.50
2023-02-06T23:26:53.401Z,101105.41
2023-02-06T23:29:21.364Z,101105.22
2023-02-06T23:31:49.398Z,101111.91
2023-02-06T23:34:18.278Z,101109.31
2023-02-06T23:36:46.338Z,101110.53
2023-02-06T23:39:13.257Z,101112.22
2023-02-06T23:41:40.340Z,101108.81
2023-02-06T23:44:08.504Z,101113.19
2023-02-06T23:46:38.192Z,101111.22
2023-02-06T23:49:06.428Z,101097.78
2023-02-06T23:51:33.890Z,101110.94
2023-02-06T23:54:01.090Z,101107.06
2023-02-06T23:56:30.353Z,101106.31
2023-02-06T23:58:59.136Z,101107.81
